sensor_id;sensor_type;location;lat;lon;timestamp;temperature;humidity
69679;DHT22;56915;52.046;4.854;2022-11-20T00:01:21;-3.50;97.80
69679;DHT22;56915;52.046;4.854;2022-11-20T00:03:51;-3.50;97.90
69679;DHT22;56915;52.046;4.854;2022-11-20T00:06:20;-3.50;97.90
69679;DHT22;56915;52.046;4.854;2022-11-20T00:08:47;-3.50;98.00
69679;DHT22;56915;52.046;4.854;2022-11-20T00:11:18;-3.50;98.00
69679;DHT22;56915;52.046;4.854;2022-11-20T00:13:48;-3.50;98.30
69679;DHT22;56915;52.046;4.854;2022-11-20T00:16:17;-3.50;98.40
69679;DHT22;56915;52.046;4.854;2022-11-20T00:18:44;-3.50;98.30
69679;DHT22;56915;52.046;4.854;2022-11-20T00:21:14;-3.50;98.30
69679;DHT22;56915;52.046;4.854;2022-11-20T00:23:41;-3.50;98.50
69679;DHT22;56915;52.046;4.854;2022-11-20T00:26:16;-3.50;98.60
69679;DHT22;56915;52.046;4.854;2022-11-20T00:28:48;-3.50;98.60
69679;DHT22;56915;52.046;4.854;2022-11-20T00:31:15;-3.40;98.60
69679;DHT22;56915;52.046;4.854;2022-11-20T00:33:43;-3.40;98.70
69679;DHT22;56915;52.046;4.854;2022-11-20T00:36:18;-3.40;98.90
69679;DHT22;56915;52.046;4.854;2022-11-20T00:38:46;-3.30;98.80
69679;DHT22;56915;52.046;4.854;2022-11-20T00:41:14;-3.40;98.50
69679;DHT22;56915;52.046;4.854;2022-11-20T00:43:55;-3.40;98.50
69679;DHT22;56915;52.046;4.854;2022-11-20T00:46:27;-3.40;98.50
69679;DHT22;56915;52.046;4.854;2022-11-20T00:48:54;-3.40;98.80
69679;DHT22;56915;52.046;4.854;2022-11-20T00:51:24;-3.40;98.60
69679;DHT22;56915;52.046;4.854;2022-11-20T00:53:51;-3.40;98.60
69679;DHT22;56915;52.046;4.854;2022-11-20T00:56:19;-3.40;98.50
69679;DHT22;56915;52.046;4.854;2022-11-20T00:58:47;-3.50;98.20
69679;DHT22;56915;52.046;4.854;2022-11-20T01:01:20;-3.60;98.30
69679;DHT22;56915;52.046;4.854;2022-11-20T01:03:49;-3.60;98.50
69679;DHT22;56915;52.046;4.854;2022-11-20T01:06:18;-3.70;98.60
69679;DHT22;56915;52.046;4.854;2022-11-20T01:08:46;-3.70;98.90
69679;DHT22;56915;52.046;4.854;2022-11-20T01:11:17;-3.70;99.00
69679;DHT22;56915;52.046;4.854;2022-11-20T01:13:45;-3.80;98.90
69679;DHT22;56915;52.046;4.854;2022-11-20T01:18:51;-3.80;99.30
69679;DHT22;56915;52.046;4.854;2022-11-20T01:21:20;-3.80;99.70
69679;DHT22;56915;52.046;4.854;2022-11-20T01:23:49;-3.80;99.70
69679;DHT22;56915;52.046;4.854;2022-11-20T01:26:18;-3.70;99.70
69679;DHT22;56915;52.046;4.854;2022-11-20T01:28:45;-3.70;99.70
69679;DHT22;56915;52.046;4.854;2022-11-20T01:33:42;-3.70;99.80
69679;DHT22;56915;52.046;4.854;2022-11-20T01:36:10;-3.60;99.90
69679;DHT22;56915;52.046;4.854;2022-11-20T01:38:37;-3.60;99.90
69679;DHT22;56915;52.046;4.854;2022-11-20T01:41:05;-3.60;99.80
69679;DHT22;56915;52.046;4.854;2022-11-20T01:43:33;-3.70;99.60
69679;DHT22;56915;52.046;4.854;2022-11-20T01:48:41;-3.80;99.90
69679;DHT22;56915;52.046;4.854;2022-11-20T01:51:28;-3.80;99.90
69679;DHT22;56915;52.046;4.854;2022-11-20T01:53:58;-3.90;99.90
69679;DHT22;56915;52.046;4.854;2022-11-20T01:56:27;-3.90;99.90
69679;DHT22;56915;52.046;4.854;2022-11-20T01:58:58;-3.90;99.90
69679;DHT22;56915;52.046;4.854;2022-11-20T02:01:25;-3.90;99.90
69679;DHT22;56915;52.046;4.854;2022-11-20T02:03:52;-3.90;99.90
69679;DHT22;56915;52.046;4.854;2022-11-20T02:06:24;-4.00;99.90
69679;DHT22;56915;52.046;4.854;2022-11-20T02:08:52;-4.00;99.90
69679;DHT22;56915;52.046;4.854;2022-11-20T02:11:19;-4.10;99.90
69679;DHT22;56915;52.046;4.854;2022-11-20T02:13:47;-4.00;99.90
69679;DHT22;56915;52.046;4.854;2022-11-20T02:18:46;-4.00;99.90
69679;DHT22;56915;52.046;4.854;2022-11-20T02:24:01;-4.00;99.90
69679;DHT22;56915;52.046;4.854;2022-11-20T02:26:31;-4.10;99.90
69679;DHT22;56915;52.046;4.854;2022-11-20T02:29:02;-4.10;99.90
69679;DHT22;56915;52.046;4.854;2022-11-20T02:31:33;-4.20;99.90
69679;DHT22;56915;52.046;4.854;2022-11-20T02:34:00;-4.10;99.90
69679;DHT22;56915;52.046;4.854;2022-11-20T02:36:27;-4.10;99.90
69679;DHT22;56915;52.046;4.854;2022-11-20T02:38:54;-4.10;99.90
69679;DHT22;56915;52.046;4.854;2022-11-20T02:41:21;-4.20;99.90
69679;DHT22;56915;52.046;4.854;2022-11-20T02:43:56;-4.20;99.90
69679;DHT22;56915;52.046;4.854;2022-11-20T02:46:23;-4.20;99.90
69679;DHT22;56915;52.046;4.854;2022-11-20T02:48:49;-4.20;99.90
69679;DHT22;56915;52.046;4.854;2022-11-20T02:51:16;-4.30;99.90
69679;DHT22;56915;52.046;4.854;2022-11-20T02:53:43;-4.30;99.90
69679;DHT22;56915;52.046;4.854;2022-11-20T02:56:10;-4.30;99.90
69679;DHT22;56915;52.046;4.854;2022-11-20T02:58:37;-4.40;99.90
69679;DHT22;56915;52.046;4.854;2022-11-20T03:01:04;-4.40;99.90
69679;DHT22;56915;52.046;4.854;2022-11-20T03:03:31;-4.50;99.90
69679;DHT22;56915;52.046;4.854;2022-11-20T03:05:59;-4.50;99.90
69679;DHT22;56915;52.046;4.854;2022-11-20T03:08:26;-4.50;99.90
69679;DHT22;56915;52.046;4.854;2022-11-20T03:10:52;-4.60;99.90
69679;DHT22;56915;52.046;4.854;2022-11-20T03:13:19;-4.50;99.90
69679;DHT22;56915;52.046;4.854;2022-11-20T03:15:46;-4.50;99.90
69679;DHT22;56915;52.046;4.854;2022-11-20T03:18:13;-4.50;99.90
69679;DHT22;56915;52.046;4.854;2022-11-20T03:20:40;-4.50;99.90
69679;DHT22;56915;52.046;4.854;2022-11-20T03:23:07;-4.50;99.90
69679;DHT22;56915;52.046;4.854;2022-11-20T03:25:33;-4.50;99.90
69679;DHT22;56915;52.046;4.854;2022-11-20T03:28:00;-4.50;99.90
69679;DHT22;56915;52.046;4.854;2022-11-20T03:30:27;-4.50;99.90
69679;DHT22;56915;52.046;4.854;2022-11-20T03:32:56;-4.60;99.90
69679;DHT22;56915;52.046;4.854;2022-11-20T03:35:23;-4.50;99.90
69679;DHT22;56915;52.046;4.854;2022-11-20T03:37:50;-4.60;99.90
69679;DHT22;56915;52.046;4.854;2022-11-20T03:40:16;-4.60;99.90
69679;DHT22;56915;52.046;4.854;2022-11-20T03:42:43;-4.60;99.90
69679;DHT22;56915;52.046;4.854;2022-11-20T03:45:17;-4.60;99.90
69679;DHT22;56915;52.046;4.854;2022-11-20T03:47:44;-4.70;99.90
69679;DHT22;56915;52.046;4.854;2022-11-20T03:50:12;-4.70;99.90
69679;DHT22;56915;52.046;4.854;2022-11-20T03:52:40;-4.80;99.90
69679;DHT22;56915;52.046;4.854;2022-11-20T03:55:09;-4.80;99.90
69679;DHT22;56915;52.046;4.854;2022-11-20T03:57:36;-4.90;99.90
69679;DHT22;56915;52.046;4.854;2022-11-20T04:00:04;-4.90;99.90
69679;DHT22;56915;52.046;4.854;2022-11-20T04:02:31;-5.00;99.90
69679;DHT22;56915;52.046;4.854;2022-11-20T04:04:58;-5.00;99.90
69679;DHT22;56915;52.046;4.854;2022-11-20T04:07:25;-5.10;99.90
69679;DHT22;56915;52.046;4.854;2022-11-20T04:09:52;-5.10;99.90
69679;DHT22;56915;52.046;4.854;2022-11-20T04:12:19;-5.00;99.90
69679;DHT22;56915;52.046;4.854;2022-11-20T04:14:45;-5.00;99.90
69679;DHT22;56915;52.046;4.854;2022-11-20T04:17:12;-5.00;99.90
69679;DHT22;56915;52.046;4.854;2022-11-20T04:19:39;-5.00;99.90
69679;DHT22;56915;52.046;4.854;2022-11-20T04:22:05;-5.00;99.90
69679;DHT22;56915;52.046;4.854;2022-11-20T04:24:32;-4.90;99.90
69679;DHT22;56915;52.046;4.854;2022-11-20T04:26:59;-5.00;99.90
69679;DHT22;56915;52.046;4.854;2022-11-20T04:29:26;-5.00;99.90
69679;DHT22;56915;52.046;4.854;2022-11-20T04:31:52;-5.00;99.90
69679;DHT22;56915;52.046;4.854;2022-11-20T04:34:19;-5.00;99.90
69679;DHT22;56915;52.046;4.854;2022-11-20T04:36:46;-5.00;99.90
69679;DHT22;56915;52.046;4.854;2022-11-20T04:39:14;-5.00;99.90
69679;DHT22;56915;52.046;4.854;2022-11-20T04:41:42;-5.00;99.90
69679;DHT22;56915;52.046;4.854;2022-11-20T04:44:09;-4.90;99.90
69679;DHT22;56915;52.046;4.854;2022-11-20T04:46:41;-4.80;99.90
69679;DHT22;56915;52.046;4.854;2022-11-20T04:49:08;-4.80;99.90
69679;DHT22;56915;52.046;4.854;2022-11-20T04:51:35;-4.70;99.90
69679;DHT22;56915;52.046;4.854;2022-11-20T04:54:02;-4.80;99.90
69679;DHT22;56915;52.046;4.854;2022-11-20T04:56:29;-4.80;99.90
69679;DHT22;56915;52.046;4.854;2022-11-20T04:59:00;-4.80;99.90
69679;DHT22;56915;52.046;4.854;2022-11-20T05:01:26;-4.80;99.90
69679;DHT22;56915;52.046;4.854;2022-11-20T05:03:53;-4.80;99.90
69679;DHT22;56915;52.046;4.854;2022-11-20T05:06:22;-4.80;99.90
69679;DHT22;56915;52.046;4.854;2022-11-20T05:08:49;-4.80;99.90
69679;DHT22;56915;52.046;4.854;2022-11-20T05:11:18;-4.90;99.90
69679;DHT22;56915;52.046;4.854;2022-11-20T05:13:46;-4.90;99.90
69679;DHT22;56915;52.046;4.854;2022-11-20T05:16:15;-4.90;99.90
69679;DHT22;56915;52.046;4.854;2022-11-20T05:18:43;-5.00;99.90
69679;DHT22;56915;52.046;4.854;2022-11-20T05:21:12;-5.00;99.90
69679;DHT22;56915;52.046;4.854;2022-11-20T05:23:39;-5.00;99.90
69679;DHT22;56915;52.046;4.854;2022-11-20T05:26:08;-5.00;99.90
69679;DHT22;56915;52.046;4.854;2022-11-20T05:28:38;-5.00;99.90
69679;DHT22;56915;52.046;4.854;2022-11-20T05:31:16;-4.90;99.90
69679;DHT22;56915;52.046;4.854;2022-11-20T05:33:51;-4.80;99.90
69679;DHT22;56915;52.046;4.854;2022-11-20T05:36:18;-4.80;99.90
69679;DHT22;56915;52.046;4.854;2022-11-20T05:38:45;-4.80;99.90
69679;DHT22;56915;52.046;4.854;2022-11-20T05:41:19;-4.70;99.90
69679;DHT22;56915;52.046;4.854;2022-11-20T05:43:48;-4.70;99.90
69679;DHT22;56915;52.046;4.854;2022-11-20T05:46:17;-4.60;99.90
69679;DHT22;56915;52.046;4.854;2022-11-20T05:48:50;-4.60;99.90
69679;DHT22;56915;52.046;4.854;2022-11-20T05:51:18;-4.50;99.90
69679;DHT22;56915;52.046;4.854;2022-11-20T05:53:46;-4.50;99.90
69679;DHT22;56915;52.046;4.854;2022-11-20T05:56:19;-4.50;99.90
69679;DHT22;56915;52.046;4.854;2022-11-20T05:58:47;-4.50;99.90
69679;DHT22;56915;52.046;4.854;2022-11-20T06:01:20;-4.40;99.90
69679;DHT22;56915;52.046;4.854;2022-11-20T06:03:47;-4.40;99.90
69679;DHT22;56915;52.046;4.854;2022-11-20T06:06:18;-4.40;99.90
69679;DHT22;56915;52.046;4.854;2022-11-20T06:08:45;-4.30;99.90
69679;DHT22;56915;52.046;4.854;2022-11-20T06:11:13;-4.30;99.90
69679;DHT22;56915;52.046;4.854;2022-11-20T06:13:41;-4.30;99.90
69679;DHT22;56915;52.046;4.854;2022-11-20T06:16:09;-4.20;99.90
69679;DHT22;56915;52.046;4.854;2022-11-20T06:18:37;-4.20;99.90
69679;DHT22;56915;52.046;4.854;2022-11-20T06:21:14;-4.20;99.90
69679;DHT22;56915;52.046;4.854;2022-11-20T06:23:42;-4.20;99.90
69679;DHT22;56915;52.046;4.854;2022-11-20T06:26:14;-4.10;99.90
69679;DHT22;56915;52.046;4.854;2022-11-20T06:28:41;-4.10;99.90
69679;DHT22;56915;52.046;4.854;2022-11-20T06:31:10;-4.00;99.90
69679;DHT22;56915;52.046;4.854;2022-11-20T06:33:38;-3.90;99.90
69679;DHT22;56915;52.046;4.854;2022-11-20T06:36:04;-3.80;99.90
69679;DHT22;56915;52.046;4.854;2022-11-20T06:38:37;-3.80;99.90
69679;DHT22;56915;52.046;4.854;2022-11-20T06:41:06;-3.80;99.90
69679;DHT22;56915;52.046;4.854;2022-11-20T06:43:32;-3.80;99.90
69679;DHT22;56915;52.046;4.854;2022-11-20T06:45:59;-3.70;99.90
69679;DHT22;56915;52.046;4.854;2022-11-20T06:48:27;-3.70;99.90
69679;DHT22;56915;52.046;4.854;2022-11-20T06:50:54;-3.60;99.90
69679;DHT22;56915;52.046;4.854;2022-11-20T06:53:21;-3.70;99.90
69679;DHT22;56915;52.046;4.854;2022-11-20T06:55:49;-3.70;99.90
69679;DHT22;56915;52.046;4.854;2022-11-20T06:58:17;-3.70;99.90
69679;DHT22;56915;52.046;4.854;2022-11-20T07:00:44;-3.70;99.90
69679;DHT22;56915;52.046;4.854;2022-11-20T07:03:11;-3.60;99.90
69679;DHT22;56915;52.046;4.854;2022-11-20T07:05:39;-3.60;99.90
69679;DHT22;56915;52.046;4.854;2022-11-20T07:08:06;-3.60;99.90
69679;DHT22;56915;52.046;4.854;2022-11-20T07:10:34;-3.60;99.90
69679;DHT22;56915;52.046;4.854;2022-11-20T07:13:01;-3.50;99.90
69679;DHT22;56915;52.046;4.854;2022-11-20T07:15:27;-3.50;99.90
69679;DHT22;56915;52.046;4.854;2022-11-20T07:17:54;-3.40;99.90
69679;DHT22;56915;52.046;4.854;2022-11-20T07:20:21;-3.30;99.90
69679;DHT22;56915;52.046;4.854;2022-11-20T07:22:56;-3.20;99.90
69679;DHT22;56915;52.046;4.854;2022-11-20T07:25:24;-3.20;99.90
69679;DHT22;56915;52.046;4.854;2022-11-20T07:27:51;-3.10;99.90
69679;DHT22;56915;52.046;4.854;2022-11-20T07:30:18;-3.00;99.90
69679;DHT22;56915;52.046;4.854;2022-11-20T07:32:52;-3.00;99.90
69679;DHT22;56915;52.046;4.854;2022-11-20T07:35:20;-2.90;99.90
69679;DHT22;56915;52.046;4.854;2022-11-20T07:37:47;-2.80;99.90
69679;DHT22;56915;52.046;4.854;2022-11-20T07:40:16;-2.80;99.90
69679;DHT22;56915;52.046;4.854;2022-11-20T07:42:53;-2.60;99.90
69679;DHT22;56915;52.046;4.854;2022-11-20T07:45:22;-2.50;99.90
69679;DHT22;56915;52.046;4.854;2022-11-20T07:47:50;-2.40;99.90
69679;DHT22;56915;52.046;4.854;2022-11-20T07:50:18;-2.30;99.90
69679;DHT22;56915;52.046;4.854;2022-11-20T07:52:46;-2.20;99.90
69679;DHT22;56915;52.046;4.854;2022-11-20T07:55:13;-2.10;99.90
69679;DHT22;56915;52.046;4.854;2022-11-20T07:57:40;-2.00;99.90
69679;DHT22;56915;52.046;4.854;2022-11-20T08:00:10;-1.90;99.90
69679;DHT22;56915;52.046;4.854;2022-11-20T08:02:41;-1.90;99.90
69679;DHT22;56915;52.046;4.854;2022-11-20T08:05:09;-1.70;99.90
69679;DHT22;56915;52.046;4.854;2022-11-20T08:07:37;-1.70;99.90
69679;DHT22;56915;52.046;4.854;2022-11-20T08:10:08;-1.50;99.90
69679;DHT22;56915;52.046;4.854;2022-11-20T08:12:47;-1.40;99.90
69679;DHT22;56915;52.046;4.854;2022-11-20T08:15:33;-1.30;99.90
69679;DHT22;56915;52.046;4.854;2022-11-20T08:20:51;-1.10;99.90
69679;DHT22;56915;52.046;4.854;2022-11-20T08:23:18;-1.00;99.90
69679;DHT22;56915;52.046;4.854;2022-11-20T08:25:49;-0.90;99.90
69679;DHT22;56915;52.046;4.854;2022-11-20T08:28:20;-0.80;99.90
69679;DHT22;56915;52.046;4.854;2022-11-20T08:30:49;-0.70;99.90
69679;DHT22;56915;52.046;4.854;2022-11-20T08:33:17;-0.60;99.90
69679;DHT22;56915;52.046;4.854;2022-11-20T08:35:44;-0.60;99.90
69679;DHT22;56915;52.046;4.854;2022-11-20T08:38:11;-0.50;99.90
69679;DHT22;56915;52.046;4.854;2022-11-20T08:40:38;-0.40;99.90
69679;DHT22;56915;52.046;4.854;2022-11-20T08:43:05;-0.40;99.90
69679;DHT22;56915;52.046;4.854;2022-11-20T08:45:32;-0.30;99.90
69679;DHT22;56915;52.046;4.854;2022-11-20T08:48:04;-0.30;99.90
69679;DHT22;56915;52.046;4.854;2022-11-20T08:50:31;-0.20;99.90
69679;DHT22;56915;52.046;4.854;2022-11-20T08:53:06;-0.10;99.90
69679;DHT22;56915;52.046;4.854;2022-11-20T08:55:32;0.00;99.90
69679;DHT22;56915;52.046;4.854;2022-11-20T08:58:05;0.10;99.90
69679;DHT22;56915;52.046;4.854;2022-11-20T09:00:33;0.20;99.90
69679;DHT22;56915;52.046;4.854;2022-11-20T09:03:00;0.30;99.90
69679;DHT22;56915;52.046;4.854;2022-11-20T09:05:29;0.30;99.90
69679;DHT22;56915;52.046;4.854;2022-11-20T09:07:58;0.30;99.90
69679;DHT22;56915;52.046;4.854;2022-11-20T09:10:29;0.40;99.90
69679;DHT22;56915;52.046;4.854;2022-11-20T09:12:56;0.40;99.90
69679;DHT22;56915;52.046;4.854;2022-11-20T09:15:24;0.50;99.90
69679;DHT22;56915;52.046;4.854;2022-11-20T09:17:59;0.60;99.90
69679;DHT22;56915;52.046;4.854;2022-11-20T09:20:30;0.70;99.90
69679;DHT22;56915;52.046;4.854;2022-11-20T09:22:57;0.80;99.90
69679;DHT22;56915;52.046;4.854;2022-11-20T09:25:24;0.90;99.90
69679;DHT22;56915;52.046;4.854;2022-11-20T09:27:58;1.00;99.90
69679;DHT22;56915;52.046;4.854;2022-11-20T09:30:26;1.10;99.90
69679;DHT22;56915;52.046;4.854;2022-11-20T09:32:53;1.10;99.90
69679;DHT22;56915;52.046;4.854;2022-11-20T09:35:20;1.20;99.90
69679;DHT22;56915;52.046;4.854;2022-11-20T09:37:47;1.30;99.90
69679;DHT22;56915;52.046;4.854;2022-11-20T09:40:23;1.40;99.90
69679;DHT22;56915;52.046;4.854;2022-11-20T09:42:59;1.50;99.90
69679;DHT22;56915;52.046;4.854;2022-11-20T09:46:04;1.50;99.90
69679;DHT22;56915;52.046;4.854;2022-11-20T09:56:34;1.90;99.90
69679;DHT22;56915;52.046;4.854;2022-11-20T09:59:06;2.00;99.90
69679;DHT22;56915;52.046;4.854;2022-11-20T10:01:35;2.10;99.90
69679;DHT22;56915;52.046;4.854;2022-11-20T10:04:04;2.20;99.90
69679;DHT22;56915;52.046;4.854;2022-11-20T10:06:39;2.20;99.90
69679;DHT22;56915;52.046;4.854;2022-11-20T10:09:18;2.30;99.90
69679;DHT22;56915;52.046;4.854;2022-11-20T10:14:53;2.50;99.90
69679;DHT22;56915;52.046;4.854;2022-11-20T10:20:27;2.80;99.70
69679;DHT22;56915;52.046;4.854;2022-11-20T10:23:14;2.90;99.50
69679;DHT22;56915;52.046;4.854;2022-11-20T10:31:47;2.90;97.80
69679;DHT22;56915;52.046;4.854;2022-11-20T10:37:13;2.90;97.40
69679;DHT22;56915;52.046;4.854;2022-11-20T10:43:10;2.80;97.20
69679;DHT22;56915;52.046;4.854;2022-11-20T10:45:53;2.70;97.10
69679;DHT22;56915;52.046;4.854;2022-11-20T10:48:24;2.60;96.70
69679;DHT22;56915;52.046;4.854;2022-11-20T10:57:44;2.40;97.70
69679;DHT22;56915;52.046;4.854;2022-11-20T11:00:13;2.40;98.10
69679;DHT22;56915;52.046;4.854;2022-11-20T11:02:49;2.50;98.60
69679;DHT22;56915;52.046;4.854;2022-11-20T11:05:25;2.60;98.60
69679;DHT22;56915;52.046;4.854;2022-11-20T11:07:57;2.70;98.50
69679;DHT22;56915;52.046;4.854;2022-11-20T11:10:46;2.80;98.40
69679;DHT22;56915;52.046;4.854;2022-11-20T11:13:23;3.00;98.30
69679;DHT22;56915;52.046;4.854;2022-11-20T11:15:51;3.10;98.30
69679;DHT22;56915;52.046;4.854;2022-11-20T11:18:25;3.30;98.30
69679;DHT22;56915;52.046;4.854;2022-11-20T11:20:54;3.50;97.60
69679;DHT22;56915;52.046;4.854;2022-11-20T11:23:39;3.50;97.30
69679;DHT22;56915;52.046;4.854;2022-11-20T11:26:21;3.60;97.50
69679;DHT22;56915;52.046;4.854;2022-11-20T11:29:01;3.70;97.30
69679;DHT22;56915;52.046;4.854;2022-11-20T11:31:31;3.80;97.40
69679;DHT22;56915;52.046;4.854;2022-11-20T11:34:11;3.90;97.20
69679;DHT22;56915;52.046;4.854;2022-11-20T11:36:39;3.90;97.30
69679;DHT22;56915;52.046;4.854;2022-11-20T11:39:13;4.00;97.10
69679;DHT22;56915;52.046;4.854;2022-11-20T11:41:41;4.10;97.00
69679;DHT22;56915;52.046;4.854;2022-11-20T11:44:20;4.10;97.20
69679;DHT22;56915;52.046;4.854;2022-11-20T11:49:48;4.20;95.90
69679;DHT22;56915;52.046;4.854;2022-11-20T11:52:26;4.10;95.50
69679;DHT22;56915;52.046;4.854;2022-11-20T11:55:04;4.10;95.40
69679;DHT22;56915;52.046;4.854;2022-11-20T11:57:41;4.00;95.70
69679;DHT22;56915;52.046;4.854;2022-11-20T12:00:20;4.00;95.70
69679;DHT22;56915;52.046;4.854;2022-11-20T12:03:17;4.00;95.90
69679;DHT22;56915;52.046;4.854;2022-11-20T12:05:49;3.90;95.50
69679;DHT22;56915;52.046;4.854;2022-11-20T12:08:23;3.90;95.60
69679;DHT22;56915;52.046;4.854;2022-11-20T12:13:39;3.80;96.10
69679;DHT22;56915;52.046;4.854;2022-11-20T12:16:13;3.80;96.90
69679;DHT22;56915;52.046;4.854;2022-11-20T12:18:41;3.80;96.90
69679;DHT22;56915;52.046;4.854;2022-11-20T12:21:18;3.80;97.10
69679;DHT22;56915;52.046;4.854;2022-11-20T12:26:56;3.70;96.90
69679;DHT22;56915;52.046;4.854;2022-11-20T12:29:40;3.70;96.70
69679;DHT22;56915;52.046;4.854;2022-11-20T12:34:56;3.60;97.00
69679;DHT22;56915;52.046;4.854;2022-11-20T12:43:09;3.50;97.40
69679;DHT22;56915;52.046;4.854;2022-11-20T12:46:22;3.50;97.90
69679;DHT22;56915;52.046;4.854;2022-11-20T12:52:35;3.60;98.00
69679;DHT22;56915;52.046;4.854;2022-11-20T12:55:16;3.60;97.80
69679;DHT22;56915;52.046;4.854;2022-11-20T12:57:58;3.50;98.00
69679;DHT22;56915;52.046;4.854;2022-11-20T13:00:27;3.50;98.40
69679;DHT22;56915;52.046;4.854;2022-11-20T13:05:55;3.50;98.40
69679;DHT22;56915;52.046;4.854;2022-11-20T13:08:36;3.50;98.70
69679;DHT22;56915;52.046;4.854;2022-11-20T13:19:16;3.50;99.30
69679;DHT22;56915;52.046;4.854;2022-11-20T13:21:48;3.50;99.40
69679;DHT22;56915;52.046;4.854;2022-11-20T13:24:30;3.50;99.50
69679;DHT22;56915;52.046;4.854;2022-11-20T13:29:46;3.60;99.60
69679;DHT22;56915;52.046;4.854;2022-11-20T13:35:01;3.50;99.90
69679;DHT22;56915;52.046;4.854;2022-11-20T13:37:34;3.50;99.90
69679;DHT22;56915;52.046;4.854;2022-11-20T13:40:22;3.60;99.90
69679;DHT22;56915;52.046;4.854;2022-11-20T13:43:35;3.60;99.90
69679;DHT22;56915;52.046;4.854;2022-11-20T13:46:08;3.60;99.90
69679;DHT22;56915;52.046;4.854;2022-11-20T13:48:42;3.50;99.90
69679;DHT22;56915;52.046;4.854;2022-11-20T13:57:39;3.50;99.90
69679;DHT22;56915;52.046;4.854;2022-11-20T14:00:18;3.50;99.90
69679;DHT22;56915;52.046;4.854;2022-11-20T14:03:12;3.50;99.90
69679;DHT22;56915;52.046;4.854;2022-11-20T14:05:52;3.40;99.90
69679;DHT22;56915;52.046;4.854;2022-11-20T14:08:27;3.40;99.90
69679;DHT22;56915;52.046;4.854;2022-11-20T14:11:29;3.30;99.90
69679;DHT22;56915;52.046;4.854;2022-11-20T14:14:16;3.30;99.90
69679;DHT22;56915;52.046;4.854;2022-11-20T14:16:43;3.30;99.90
69679;DHT22;56915;52.046;4.854;2022-11-20T14:19:22;3.30;99.90
69679;DHT22;56915;52.046;4.854;2022-11-20T14:21:52;3.20;99.90
69679;DHT22;56915;52.046;4.854;2022-11-20T14:24:21;3.20;99.90
69679;DHT22;56915;52.046;4.854;2022-11-20T14:26:50;3.20;99.90
69679;DHT22;56915;52.046;4.854;2022-11-20T14:29:28;3.30;99.90
69679;DHT22;56915;52.046;4.854;2022-11-20T14:31:56;3.30;99.90
69679;DHT22;56915;52.046;4.854;2022-11-20T14:34:27;3.30;99.90
69679;DHT22;56915;52.046;4.854;2022-11-20T14:37:02;3.30;99.90
69679;DHT22;56915;52.046;4.854;2022-11-20T14:39:39;3.30;99.90
69679;DHT22;56915;52.046;4.854;2022-11-20T14:42:21;3.30;99.90
69679;DHT22;56915;52.046;4.854;2022-11-20T14:44:50;3.20;99.90
69679;DHT22;56915;52.046;4.854;2022-11-20T14:47:20;3.20;99.90
69679;DHT22;56915;52.046;4.854;2022-11-20T14:49:49;3.20;99.90
69679;DHT22;56915;52.046;4.854;2022-11-20T14:52:18;3.20;99.90
69679;DHT22;56915;52.046;4.854;2022-11-20T14:54:58;3.10;99.90
69679;DHT22;56915;52.046;4.854;2022-11-20T14:57:30;3.20;99.90
69679;DHT22;56915;52.046;4.854;2022-11-20T15:02:42;3.20;99.90
69679;DHT22;56915;52.046;4.854;2022-11-20T15:05:10;3.20;99.90
69679;DHT22;56915;52.046;4.854;2022-11-20T15:07:40;3.20;99.90
69679;DHT22;56915;52.046;4.854;2022-11-20T15:10:27;3.20;99.90
69679;DHT22;56915;52.046;4.854;2022-11-20T15:12:59;3.30;99.90
69679;DHT22;56915;52.046;4.854;2022-11-20T15:15:45;3.30;99.90
69679;DHT22;56915;52.046;4.854;2022-11-20T15:18:15;3.30;99.90
69679;DHT22;56915;52.046;4.854;2022-11-20T15:20:42;3.30;99.90
69679;DHT22;56915;52.046;4.854;2022-11-20T15:23:14;3.30;99.90
69679;DHT22;56915;52.046;4.854;2022-11-20T15:25:42;3.40;99.90
69679;DHT22;56915;52.046;4.854;2022-11-20T15:28:23;3.40;99.90
69679;DHT22;56915;52.046;4.854;2022-11-20T15:30:54;3.40;99.90
69679;DHT22;56915;52.046;4.854;2022-11-20T15:33:22;3.40;99.90
69679;DHT22;56915;52.046;4.854;2022-11-20T15:35:49;3.40;99.90
69679;DHT22;56915;52.046;4.854;2022-11-20T15:38:16;3.40;99.90
69679;DHT22;56915;52.046;4.854;2022-11-20T15:40:43;3.40;99.90
69679;DHT22;56915;52.046;4.854;2022-11-20T15:43:09;3.50;99.90
69679;DHT22;56915;52.046;4.854;2022-11-20T15:45:47;3.50;99.90
69679;DHT22;56915;52.046;4.854;2022-11-20T15:48:24;3.50;99.90
69679;DHT22;56915;52.046;4.854;2022-11-20T15:51:29;3.50;99.90
69679;DHT22;56915;52.046;4.854;2022-11-20T15:53:57;3.50;99.90
69679;DHT22;56915;52.046;4.854;2022-11-20T15:56:26;3.50;99.90
69679;DHT22;56915;52.046;4.854;2022-11-20T15:58:55;3.50;99.90
69679;DHT22;56915;52.046;4.854;2022-11-20T16:01:22;3.50;99.90
69679;DHT22;56915;52.046;4.854;2022-11-20T16:03:49;3.50;99.90
69679;DHT22;56915;52.046;4.854;2022-11-20T16:06:18;3.50;99.90
69679;DHT22;56915;52.046;4.854;2022-11-20T16:08:44;3.50;99.90
69679;DHT22;56915;52.046;4.854;2022-11-20T16:11:16;3.50;99.90
69679;DHT22;56915;52.046;4.854;2022-11-20T16:13:44;3.50;99.90
69679;DHT22;56915;52.046;4.854;2022-11-20T16:16:32;3.50;99.90
69679;DHT22;56915;52.046;4.854;2022-11-20T16:18:59;3.60;99.90
69679;DHT22;56915;52.046;4.854;2022-11-20T16:21:27;3.60;99.90
69679;DHT22;56915;52.046;4.854;2022-11-20T16:23:58;3.60;99.90
69679;DHT22;56915;52.046;4.854;2022-11-20T16:26:25;3.60;99.90
69679;DHT22;56915;52.046;4.854;2022-11-20T16:28:52;3.60;99.90
69679;DHT22;56915;52.046;4.854;2022-11-20T16:31:19;3.60;99.90
69679;DHT22;56915;52.046;4.854;2022-11-20T16:33:51;3.60;99.90
69679;DHT22;56915;52.046;4.854;2022-11-20T16:36:19;3.60;99.90
69679;DHT22;56915;52.046;4.854;2022-11-20T16:38:46;3.60;99.90
69679;DHT22;56915;52.046;4.854;2022-11-20T16:41:13;3.60;99.90
69679;DHT22;56915;52.046;4.854;2022-11-20T16:43:54;3.60;99.90
69679;DHT22;56915;52.046;4.854;2022-11-20T16:46:23;3.60;99.90
69679;DHT22;56915;52.046;4.854;2022-11-20T16:48:54;3.60;99.90
69679;DHT22;56915;52.046;4.854;2022-11-20T16:51:22;3.60;99.90
69679;DHT22;56915;52.046;4.854;2022-11-20T16:53:50;3.60;99.90
69679;DHT22;56915;52.046;4.854;2022-11-20T16:56:19;3.60;99.90
69679;DHT22;56915;52.046;4.854;2022-11-20T16:58:47;3.60;99.90
69679;DHT22;56915;52.046;4.854;2022-11-20T17:01:16;3.60;99.90
69679;DHT22;56915;52.046;4.854;2022-11-20T17:03:44;3.60;99.90
69679;DHT22;56915;52.046;4.854;2022-11-20T17:06:18;3.70;99.90
69679;DHT22;56915;52.046;4.854;2022-11-20T17:08:45;3.70;99.90
69679;DHT22;56915;52.046;4.854;2022-11-20T17:11:17;3.70;99.90
69679;DHT22;56915;52.046;4.854;2022-11-20T17:13:45;3.80;99.90
69679;DHT22;56915;52.046;4.854;2022-11-20T17:16:14;3.80;99.90
69679;DHT22;56915;52.046;4.854;2022-11-20T17:18:41;3.70;99.90
69679;DHT22;56915;52.046;4.854;2022-11-20T17:21:10;3.80;99.90
69679;DHT22;56915;52.046;4.854;2022-11-20T17:23:39;3.80;99.90
69679;DHT22;56915;52.046;4.854;2022-11-20T17:26:22;3.80;99.90
69679;DHT22;56915;52.046;4.854;2022-11-20T17:29:05;3.90;99.90
69679;DHT22;56915;52.046;4.854;2022-11-20T17:31:33;3.90;99.90
69679;DHT22;56915;52.046;4.854;2022-11-20T17:34:01;3.90;99.90
69679;DHT22;56915;52.046;4.854;2022-11-20T17:36:28;3.90;99.90